フランクフルト の空港の天気 - METARとTAF

フランクフルト国際空港 ( EDDF / FRA ) - ドイツ フランクフルト・アム・マイン
飛行場実況気象(Metar)
観測時間04/25 16:20 CEST (04/25 14:20 UTC)
風向・風速西南西 8m/s
視程10km以上
天気現象周辺でしゅう雨
全天の4割程度の雲 雲底高度 1220m
全天の4割程度の雲 雲底高度 2740m
気温18℃
湿度45%
気圧1012hPa
METAREDDF 251420Z 25015KT 230V290 9999 VCSH SCT040 SCT090 18/06 Q1012 NOSIG
過去の天気等 Google飛行場航空写真 Wunderground天気予報

過去48時間のMETAR

飛行場予報(TAF)
発表時間: 4/25 13:18 CEST (4/25 11:18 UTC)
予報対象時間: 25日14時 CEST ~ 26日20時 CEST
風向・風速西南西 8m/s 瞬間風速 13m/s
視程10km以上
全天の4割程度の雲 雲底高度 1,070m
25日14時 CEST ~ 25日18時 CEST に一時的に
風向・風速西 10m/s 瞬間風速 15m/s
25日14時 CEST ~ 25日23時 CEST に 確率 30% で一時的に
天気現象しゅう雨
全天の8割程度の塔状積雲 雲底高度 910m
25日19時 CEST ~ 25日21時 CEST に徐々に
風向・風速西 5m/s
26日9時 CEST ~ 26日11時 CEST に徐々に
風向・風速西 8m/s 瞬間風速 13m/s
26日11時 CEST ~ 26日17時 CEST に 確率 30% で一時的に
天気現象しゅう雨
全天の4割程度の塔状積雲 雲底高度 1,220m
TAF EDDF 251118Z 2512/2618 24015G25KT 9999 SCT035
TEMPO 2512/2516 27020G30KT
PROB30 TEMPO 2512/2521 SHRA BKN030TCU
BECMG 2517/2519 26010KT
BECMG 2607/2609 26015G25KT
PROB30 TEMPO 2609/2615 SHRA SCT040TCU